Data for 03/21/2005

Time Sea-Level Adjusted Pressure Absolute Pressure Temperature Relative Humidity Dew Point   
(mb) (inHg) (mb) (inHg) (C) (F) (%) (C) (F)
00:05 1011 29.85 840 24.81 1.1 34 97 0.7 33.3
00:10 1011 29.85 840 24.81 1.1 34 97 0.8 33.4
00:15 1011 29.85 840 24.81 1.2 34.2 97 0.8 33.5
00:20 1011 29.85 840 24.81 1.3 34.4 97 0.9 33.6
00:25 1011 29.85 840 24.81 1.3 34.4 97 0.9 33.7
00:30 1011 29.85 840 24.81 1.4 34.6 97 1 33.8
00:35 1011 29.85 840 24.81 1.4 34.6 97 1 33.9
00:40 1011 29.85 840 24.81 1.4 34.6 97 1 33.8
00:45 1011 29.85 840 24.81 1.4 34.6 97 1 33.8
00:50 1011 29.85 840 24.81 1.3 34.4 97 0.9 33.6
00:55 1011 29.85 840 24.81 1.3 34.3 98 1 33.8
01:00 1011 29.85 840 24.81 1.3 34.3 98 1 33.7
01:05 1011 29.85 840 24.81 1.4 34.6 97 1 33.8
01:10 1011 29.85 840 24.81 1.4 34.5 97 1 33.8
01:15 1011 29.85 841 24.83 1.5 34.6 97 1 33.9
01:20 1011 29.85 841 24.83 1.5 34.7 97 1.1 33.9
01:25 1011 29.85 841 24.83 1.5 34.7 97 1.1 33.9
01:30 1011 29.85 841 24.83 1.5 34.7 97 1 33.9
01:35 1011 29.85 841 24.83 1.4 34.5 97 0.9 33.7
01:40 1011 29.85 841 24.83 1.3 34.4 97 0.9 33.6
01:45 1011 29.85 841 24.83 1.3 34.3 97 0.9 33.6
01:50 1011 29.85 841 24.83 1.3 34.4 97 0.9 33.6
01:55 1011 29.85 841 24.83 1.2 34.2 97 0.8 33.5
02:00 1011 29.85 841 24.83 1.3 34.3 97 0.9 33.6
02:05 1011 29.85 841 24.83 1.3 34.3 97 0.9 33.5
02:10 1011 29.85 841 24.83 1.2 34.2 97 0.8 33.4
02:15 1011 29.85 841 24.83 1.2 34.1 97 0.7 33.3
02:20 1011 29.85 841 24.83 1.1 34 97 0.7 33.3
02:25 1011 29.85 841 24.83 1 33.8 97 0.6 33.2
02:30 1011 29.85 841 24.83 1 33.9 98 0.7 33.2
02:35 1011 29.85 841 24.83 1.1 34.1 97 0.7 33.3
02:40 1011 29.85 841 24.83 1.2 34.2 96 0.7 33.2
02:45 1011 29.85 841 24.83 1.1 34 97 0.6 33.2
02:50 1011 29.85 841 24.83 1 33.8 97 0.6 33
02:55 1011 29.85 840 24.81 1 33.8 97 0.6 33.2
03:00 1011 29.85 841 24.83 1.1 33.9 97 0.6 33.1
03:05 1011 29.85 840 24.81 1.1 34 97 0.6 33.1
03:10 1011 29.85 840 24.81 1.2 34.1 97 0.7 33.2
03:15 1011 29.85 840 24.81 1.1 34 96 0.6 33.1
03:20 1011 29.85 840 24.81 1.2 34.1 96 0.6 33.1
03:25 1011 29.85 840 24.81 1.2 34.1 96 0.6 33
03:30 1011 29.85 840 24.81 1.3 34.3 95 0.6 33.1
03:35 1011 29.85 840 24.81 1.2 34.2 95 0.5 32.8
03:40 1011 29.85 840 24.81 1.4 34.5 94 0.5 33
03:45 1011 29.85 840 24.81 1.3 34.4 94 0.5 32.9
03:50 1011 29.85 840 24.81 1.4 34.6 94 0.5 32.9
03:55 1011 29.85 841 24.83 1.5 34.7 92 0.4 32.6
04:00 1011 29.85 841 24.83 1.5 34.7 92 0.3 32.6
04:05 1012 29.88 841 24.83 1.5 34.8 91 0.3 32.5
04:10 1012 29.88 841 24.83 1.6 34.9 91 0.3 32.6
04:15 1012 29.88 841 24.83 1.7 35 91 0.3 32.6
04:20 1012 29.88 841 24.83 1.6 34.9 92 0.4 32.7
04:25 1012 29.88 841 24.83 1.6 34.9 91 0.3 32.5
04:30 1012 29.88 841 24.83 1.7 35 90 0.3 32.5
04:35 1012 29.88 841 24.83 1.8 35.2 90 0.2 32.4
04:40 1012 29.88 841 24.83 1.6 34.9 91 0.3 32.5
04:45 1012 29.88 841 24.83 1.5 34.7 91 0.2 32.3
04:50 1012 29.88 841 24.83 1.5 34.8 91 0.2 32.4
04:55 1012 29.88 841 24.83 1.5 34.7 91 0.2 32.4
05:00 1012 29.88 841 24.83 1.3 34.4 91 0.1 32.1
05:05 1012 29.88 841 24.83 1.2 34.2 91 -0 31.9
05:10 1012 29.88 841 24.83 1.1 34.1 91 -0.2 31.7
05:15 1012 29.88 841 24.83 1.3 34.3 90 -0.2 31.7
05:20 1012 29.88 841 24.83 1.1 34 91 -0.2 31.6
05:25 1012 29.88 841 24.83 0.9 33.5 92 -0.2 31.6
05:30 1012 29.88 841 24.83 0.6 33.1 93 -0.3 31.4
05:35 1012 29.88 841 24.83 0.5 32.9 94 -0.4 31.3
05:40 1012 29.88 841 24.83 0.4 32.6 95 -0.4 31.2
05:45 1012 29.88 841 24.83 0.3 32.6 94 -0.5 31.2
05:50 1012 29.88 841 24.83 0.4 32.8 94 -0.4 31.3
05:55 1012 29.88 841 24.83 0.5 32.9 93 -0.6 31
06:00 1012 29.88 841 24.83 0.6 33.1 92 -0.6 31
06:05 1012 29.88 841 24.83 0.7 33.2 91 -0.7 30.8
06:10 1012 29.88 841 24.83 0.8 33.5 89 -0.7 30.7
06:15 1012 29.88 842 24.86 0.7 33.3 91 -0.6 30.9
06:20 1012 29.88 842 24.86 0.6 33.1 91 -0.6 30.8
06:25 1012 29.88 842 24.86 0.5 32.8 92 -0.6 30.9
06:30 1013 29.91 842 24.86 0.7 33.3 90 -0.8 30.6
06:35 1013 29.91 842 24.86 1.1 34 88 -0.6 30.8
06:40 1013 29.91 842 24.86 1.2 34.1 87 -0.7 30.7
06:45 1013 29.91 842 24.86 1.2 34.1 88 -0.7 30.8
06:50 1013 29.91 842 24.86 1.2 34.2 87 -0.7 30.7
06:55 1013 29.91 842 24.86 1.3 34.3 86 -0.8 30.5
07:00 1013 29.91 842 24.86 1.3 34.3 85 -1 30.2
07:05 1013 29.91 842 24.86 1.3 34.3 84 -1.1 30.1
07:10 1013 29.91 842 24.86 1.2 34.1 84 -1.3 29.7
07:15 1013 29.91 842 24.86 1.4 34.5 84 -1 30.1
07:20 1013 29.91 842 24.86 1.4 34.5 84 -1 30.2
07:25 1013 29.91 842 24.86 1.4 34.5 87 -0.6 31
07:30 1013 29.91 842 24.86 1.3 34.3 89 -0.4 31.3
07:35 1013 29.91 842 24.86 1.2 34.2 88 -0.6 30.9
07:40 1013 29.91 842 24.86 1.5 34.6 87 -0.5 31.2
07:45 1013 29.91 842 24.86 1.8 35.2 86 -0.3 31.4
07:50 1013 29.91 842 24.86 2.2 35.9 84 -0.2 31.6
07:55 1013 29.91 842 24.86 2.8 37 81 -0.1 31.8
08:00 1013 29.91 842 24.86 2.4 36.3 84 0 32.1
08:05 1013 29.91 842 24.86 2.3 36.2 84 -0.1 31.8
08:10 1013 29.91 842 24.86 2.9 37.2 80 -0.2 31.7
08:15 1013 29.91 843 24.89 3.2 37.8 77 -0.4 31.3
08:20 1013 29.91 842 24.86 3.1 37.6 80 -0.1 31.8
08:25 1013 29.91 842 24.86 3 37.4 79 -0.3 31.5
08:30 1013 29.91 842 24.86 3.4 38.2 78 -0.1 31.8
08:35 1013 29.91 842 24.86 3.7 38.7 77 0.1 32.2
08:40 1013 29.91 842 24.86 4.5 40.2 70 -0.5 31
08:45 1013 29.91 843 24.89 5 40.9 69 -0.2 31.7
08:50 1013 29.91 843 24.89 4.8 40.6 71 -0 32
08:55 1013 29.91 843 24.89 4.3 39.7 76 0.5 32.9
09:00 1013 29.91 843 24.89 4.5 40 74 0.2 32.4
09:05 1013 29.91 843 24.89 4.5 40.2 70 -0.4 31.3
09:10 1013 29.91 843 24.89 4.8 40.7 64 -1.4 29.6
09:15 1013 29.91 843 24.89 4.9 40.8 63 -1.6 29.1
09:20 1013 29.91 843 24.89 5.5 41.8 65 -0.5 31.1
09:25 1014 29.94 843 24.89 6.2 43.2 65 0.1 32.2
09:30 1014 29.94 843 24.89 6.6 43.8 63 0 32.1
09:35 1014 29.94 843 24.89 6.9 44.4 61 -0.1 31.8
09:40 1014 29.94 843 24.89 7 44.5 60 -0.2 31.6
09:45 1014 29.94 843 24.89 6.6 43.9 60 -0.5 31.1
09:50 1014 29.94 843 24.89 7.1 44.8 59 -0.3 31.5
09:55 1014 29.94 843 24.89 6.6 43.8 59 -0.8 30.6
10:00 1014 29.94 843 24.89 7.1 44.8 59 -0.3 31.5
10:05 1014 29.94 843 24.89 7.3 45.1 59 -0.3 31.5
10:10 1014 29.94 843 24.89 7.9 46.3 55 -0.6 30.9
10:15 1014 29.94 843 24.89 8 46.4 55 -0.5 31.1
10:20 1014 29.94 843 24.89 8 46.3 54 -0.8 30.5
10:25 1014 29.94 843 24.89 8.3 46.9 51 -1.2 29.9
10:30 1014 29.94 843 24.89 8 46.4 55 -0.6 31
10:35 1014 29.94 843 24.89 7.6 45.6 54 -1.1 30
10:40 1014 29.94 843 24.89 7.3 45.1 54 -1.4 29.5
10:45 1014 29.94 843 24.89 7.8 46 53 -1.3 29.7
10:50 1014 29.94 843 24.89 8.1 46.5 53 -1 30.2
10:55 1014 29.94 843 24.89 8.7 47.7 50 -1.2 29.8
11:00 1014 29.94 843 24.89 9.2 48.6 49 -0.8 30.6
11:05 1014 29.94 843 24.89 9.7 49.4 50 -0.3 31.4
11:10 1014 29.94 843 24.89 9.8 49.6 48 -0.8 30.6
11:15 1014 29.94 843 24.89 10.1 50.2 49 -0.1 31.7
11:20 1014 29.94 843 24.89 9.6 49.3 51 -0 32
11:25 1014 29.94 843 24.89 9.4 48.9 50 -0.6 30.9
11:30 1014 29.94 843 24.89 9.6 49.4 51 0.1 32.3
11:35 1014 29.94 843 24.89 8.4 47.1 41 -4 24.8
11:40 1014 29.94 843 24.89 8.3 47 40 -4.6 23.7
11:45 1014 29.94 843 24.89 9.3 48.7 36 -5.1 22.8
11:50 1014 29.94 843 24.89 8.3 46.9 38 -5.2 22.6
11:55 1014 29.94 843 24.89 8.5 47.2 36 -5.7 21.8
12:00 1014 29.94 843 24.89 8.8 47.9 35 -5.7 21.7
12:05 1014 29.94 843 24.89 9 48.2 38 -4.7 23.6
12:10 1014 29.94 843 24.89 9.3 48.8 35 -5.3 22.4
12:15 1014 29.94 843 24.89 8.7 47.6 34 -6.2 20.8
12:20 1014 29.94 843 24.89 8.7 47.6 35 -6 21.2
12:25 1014 29.94 843 24.89 9 48.2 35 -5.6 21.8
12:30 1014 29.94 843 24.89 8.4 47.2 37 -5.5 22.2
12:35 1014 29.94 843 24.89 9.4 48.9 34 -5.8 21.6
12:40 1014 29.94 843 24.89 9.3 48.8 35 -5.3 22.4
12:45 1014 29.94 843 24.89 9.2 48.6 34 -5.8 21.5
12:50 1014 29.94 843 24.89 9.1 48.4 35 -5.7 21.8
12:55 1014 29.94 843 24.89 9.2 48.5 34 -5.7 21.8
13:00 1014 29.94 843 24.89 9.7 49.4 33 -5.8 21.6
13:05 1014 29.94 843 24.89 9.3 48.8 34 -5.7 21.8
13:10 1014 29.94 843 24.89 9.9 49.7 33 -5.8 21.6
13:15 1014 29.94 843 24.89 9.9 49.8 32 -5.9 21.4
13:20 1014 29.94 843 24.89 10.4 50.8 30 -6.2 20.8
13:25 1014 29.94 843 24.89 9.4 48.9 32 -6.4 20.5
13:30 1014 29.94 843 24.89 8.7 47.6 34 -6.3 20.7
13:35 1014 29.94 843 24.89 9.3 48.7 33 -6 21.2
13:40 1014 29.94 843 24.89 9.8 49.7 32 -6.1 21.1
13:45 1014 29.94 843 24.89 9.6 49.3 32 -6.3 20.7
13:50 1014 29.94 843 24.89 10.1 50.2 31 -6 21.1
13:55 1014 29.94 843 24.89 10.7 51.3 32 -5.3 22.4
14:00 1014 29.94 843 24.89 9.4 49 33 -5.9 21.3
14:05 1013 29.91 843 24.89 10.2 50.3 30 -6.5 20.3
14:10 1013 29.91 843 24.89 10.4 50.7 30 -6.6 20.1
14:15 1013 29.91 843 24.89 10.1 50.1 32 -6 21.1
14:20 1013 29.91 843 24.89 10.3 50.6 31 -6 21.2
14:25 1013 29.91 843 24.89 9.8 49.6 31 -6.4 20.4
14:30 1013 29.91 843 24.89 10.3 50.6 29 -7.1 19.2
14:35 1013 29.91 843 24.89 10.9 51.7 30 -5.9 21.3
14:40 1013 29.91 843 24.89 10.3 50.6 30 -6.3 20.6
14:45 1013 29.91 843 24.89 9.9 49.8 31 -6.2 20.8
14:50 1013 29.91 843 24.89 9.9 49.8 33 -5.6 22
14:55 1013 29.91 843 24.89 9.4 48.9 35 -5.2 22.7
15:00 1013 29.91 843 24.89 8.9 48.1 35 -5.6 21.8
15:05 1014 29.94 843 24.89 8.5 47.2 51 -1.1 30
15:10 1014 29.94 843 24.89 7.1 44.7 58 -0.7 30.7
15:15 1014 29.94 843 24.89 6.5 43.7 56 -1.6 29.1
15:20 1014 29.94 843 24.89 6 42.9 56 -2.2 28.1
15:25 1014 29.94 843 24.89 6.2 43.1 51 -3.1 26.5
15:30 1014 29.94 843 24.89 6.6 43.9 44 -4.7 23.5
15:35 1014 29.94 843 24.89 6.9 44.5 37 -6.8 19.7
15:40 1014 29.94 843 24.89 8 46.4 35 -6.5 20.2
15:45 1014 29.94 843 24.89 8.7 47.7 51 -0.8 30.5
15:50 1014 29.94 843 24.89 7.8 46 55 -0.7 30.7
15:55 1014 29.94 843 24.89 7.1 44.8 58 -0.6 30.9
16:00 1014 29.94 844 24.92 6.7 44.1 61 -0.3 31.5
16:05 1014 29.94 843 24.89 6.6 43.9 60 -0.6 31
16:10 1014 29.94 843 24.89 6.8 44.3 60 -0.5 31.1
16:15 1014 29.94 843 24.89 6.5 43.7 60 -0.6 30.8
16:20 1014 29.94 844 24.92 6.5 43.6 60 -0.8 30.6
16:25 1014 29.94 844 24.92 6.4 43.6 62 -0.4 31.3
16:30 1014 29.94 844 24.92 6.3 43.3 62 -0.4 31.3
16:35 1014 29.94 844 24.92 6 42.9 63 -0.4 31.2
16:40 1015 29.97 844 24.92 6 42.9 64 -0.3 31.5
16:45 1015 29.97 844 24.92 5.7 42.2 64 -0.7 30.8
16:50 1015 29.97 844 24.92 6.1 42.9 61 -0.8 30.6
16:55 1015 29.97 844 24.92 5.6 42.2 65 -0.3 31.5
17:00 1015 29.97 844 24.92 5.5 41.9 66 -0.3 31.5
17:05 1015 29.97 844 24.92 5.5 41.9 65 -0.4 31.2
17:10 1015 29.97 844 24.92 5 41 68 -0.3 31.5
17:15 1015 29.97 844 24.92 4.7 40.5 68 -0.7 30.7
17:20 1015 29.97 844 24.92 4.9 40.8 67 -0.8 30.6
17:25 1015 29.97 844 24.92 5.4 41.7 65 -0.6 30.9
17:30 1015 29.97 844 24.92 5 41 66 -0.7 30.7
17:35 1015 29.97 844 24.92 5.3 41.5 66 -0.5 31.1
17:40 1015 29.97 844 24.92 5.5 41.9 65 -0.5 31.1
17:45 1015 29.97 844 24.92 5.5 41.9 64 -0.7 30.7
17:50 1015 29.97 844 24.92 5.4 41.8 65 -0.7 30.8
17:55 1015 29.97 844 24.92 5.5 41.9 63 -1 30.2
18:00 1015 29.97 844 24.92 5.2 41.3 64 -1.1 30.1
18:05 1015 29.97 844 24.92 4.9 40.9 65 -1.1 30.1
18:10 1015 29.97 844 24.92 4.8 40.7 66 -0.9 30.4
18:15 1015 29.97 844 24.92 4.7 40.4 67 -0.8 30.5
18:20 1015 29.97 844 24.92 4.7 40.4 67 -0.9 30.4
18:25 1015 29.97 845 24.95 4.8 40.7 68 -0.6 30.8
18:30 1015 29.97 845 24.95 5 41 68 -0.4 31.2
18:35 1015 29.97 845 24.95 5 40.9 69 -0.2 31.6
18:40 1015 29.97 844 24.92 4.4 40 75 0.4 32.7
18:45 1015 29.97 844 24.92 4.1 39.3 76 0.2 32.3
18:50 1015 29.97 844 24.92 3.9 38.9 77 0.2 32.4
18:55 1015 29.97 844 24.92 3.7 38.7 77 0.1 32.1
19:00 1015 29.97 844 24.92 3.7 38.6 77 0 32.1
19:05 1015 29.97 844 24.92 3.8 38.8 78 0.4 32.7
19:10 1015 29.97 845 24.95 3.8 38.9 77 0.1 32.2
19:15 1015 29.97 845 24.95 3.9 39 77 0.3 32.6
19:20 1016 30 845 24.95 3.9 39 76 0.1 32.2
19:25 1016 30 845 24.95 3.7 38.7 80 0.5 33
19:30 1016 30 845 24.95 3.4 38.1 81 0.4 32.8
19:35 1016 30 845 24.95 3.3 37.9 80 0.2 32.4
19:40 1016 30 845 24.95 3.1 37.6 81 0.2 32.3
19:45 1016 30 845 24.95 3.2 37.7 81 0.2 32.4
19:50 1016 30 845 24.95 3.4 38.1 80 0.2 32.4
19:55 1016 30 845 24.95 3.3 38 80 0.1 32.3
20:00 1016 30 845 24.95 3.4 38.1 79 0 32
20:05 1016 30 845 24.95 3.4 38.2 79 0.1 32.1
20:10 1016 30 845 24.95 3.2 37.8 80 0.1 32.2
20:15 1016 30 845 24.95 3.2 37.8 81 0.3 32.5
20:20 1016 30 845 24.95 3 37.5 82 0.2 32.4
20:25 1016 30 845 24.95 2.9 37.3 82 0.2 32.4
20:30 1016 30 845 24.95 2.6 36.7 84 0.2 32.4
20:35 1016 30 845 24.95 2.2 35.9 87 0.2 32.3
20:40 1016 30 845 24.95 2 35.6 86 -0.1 31.8
20:45 1016 30 845 24.95 1.9 35.4 87 -0.1 31.8
20:50 1016 30 845 24.95 1.9 35.4 85 -0.3 31.4
20:55 1016 30 845 24.95 1.9 35.4 86 -0.3 31.5
21:00 1016 30 845 24.95 2 35.6 83 -0.7 30.8
21:05 1016 30 845 24.95 2.2 36 83 -0.4 31.2
21:10 1016 30 845 24.95 2 35.7 84 -0.4 31.3
21:15 1016 30 845 24.95 2 35.6 84 -0.3 31.4
21:20 1016 30 845 24.95 2.1 35.7 83 -0.5 31
21:25 1016 30 845 24.95 1.8 35.3 83 -0.7 30.7
21:30 1016 30 845 24.95 1.3 34.3 87 -0.6 30.9
21:35 1016 30 845 24.95 0.9 33.6 87 -1 30.2
21:40 1016 30 845 24.95 1.3 34.3 84 -1.1 30
21:45 1016 30 845 24.95 1.3 34.4 85 -0.9 30.4
21:50 1016 30 845 24.95 0.8 33.4 88 -1 30.1
21:55 1016 30 845 24.95 0.6 33 88 -1.2 29.9
22:00 1016 30 845 24.95 0.6 33.2 87 -1.3 29.7
22:05 1016 30 845 24.95 0.6 33.1 88 -1.2 29.8
22:10 1016 30 845 24.95 0.6 33 88 -1.3 29.7
22:15 1016 30 845 24.95 0.7 33.2 86 -1.5 29.4
22:20 1016 30 845 24.95 0.8 33.5 86 -1.3 29.7
22:25 1016 30 845 24.95 0.8 33.4 86 -1.3 29.7
22:30 1016 30 845 24.95 0.8 33.4 87 -1.2 29.8
22:35 1016 30 845 24.95 0.7 33.2 87 -1.3 29.7
22:40 1016 30 845 24.95 0.7 33.2 86 -1.4 29.5
22:45 1016 30 845 24.95 0.5 33 87 -1.4 29.5
22:50 1016 30 845 24.95 0.5 32.8 87 -1.5 29.3
22:55 1016 30 845 24.95 0.3 32.6 87 -1.5 29.2
23:00 1016 30 845 24.95 0.3 32.6 87 -1.5 29.3
23:05 1016 30 845 24.95 0.4 32.7 87 -1.5 29.2
23:10 1016 30 845 24.95 0.3 32.6 87 -1.6 29.1
23:15 1016 30 845 24.95 0.4 32.8 87 -1.4 29.4
23:20 1016 30 845 24.95 0.7 33.2 86 -1.4 29.5
23:25 1016 30 845 24.95 0.9 33.5 86 -1.2 29.8
23:30 1016 30 845 24.95 1 33.7 85 -1.2 29.8
23:35 1016 30 845 24.95 0.9 33.6 86 -1.2 29.8
23:40 1016 30 845 24.95 0.7 33.3 86 -1.4 29.5
23:45 1016 30 845 24.95 0.7 33.2 86 -1.5 29.4
23:50 1016 30 845 24.95 0.5 32.9 87 -1.5 29.4
23:55 1016 30 845 24.95 0.5 32.9 86 -1.5 29.2
24:00 1016 30 845 24.95 0.5 32.9 86 -1.6 29.1